Lansing, MI (48922)

6:30 AM EST on February 28, 2017 (GMT -0500)
Shaw Estates | | Change Station
Active Advisory: Flood Advisory Active Notice: Flood Advisory

Elev 869 ft 42.73 °N, 84.54 °W | Updated 1 minute ago

Rain
Rain
41.4 °F
Feels Like 41 °F
N
0.0
Wind Variable Wind from West
Gusts 0.0 mph

Today
High -- | Low -- °F
--% Chance of Precip.
Yesterday
High -- | Low -- °F
Precip. -- in
Pressure 30.01 in
Visibility 1.0 miles
Clouds Scattered Clouds 500 ft
Mostly Cloudy 3600 ft
Overcast 4700 ft
Windchill 41 °F
Dew Point 40 °F
Humidity 96%
Rainfall 0.00 in
Snow Depth Not available.
7:15 AM 6:26 PM
Waxing Crescent, 4% visible
SPECI KLAN 281127Z 14010KT 1SM R28L/P6000FT -RA BR SCT005 BKN036 OVC047 05/03 A3001 RMK AO2 P0003 T00500033 $
Pressure 30.01 in
Visibility 1.0 miles
Clouds Scattered Clouds 500 ft
Mostly Cloudy 3600 ft
Overcast 4700 ft
Windchill 41 °F
Dew Point 40 °F
Humidity 96%
Rainfall 0.00 in
Snow Depth Not available.
7:15 AM 6:26 PM
Waxing Crescent, 4% visible
SPECI KLAN 281127Z 14010KT 1SM R28L/P6000FT -RA BR SCT005 BKN036 OVC047 05/03 A3001 RMK AO2 P0003 T00500033 $

Get Your Daily Forecast Email!

Thanks for signing up!

Be on the lookout for a verification email in your inbox.

You'll start receiving the daily forecast at 8 AM.

×

10-Day Weather Forecast

Almanac

Astronomy

Feb. 28, 2017 Rise Set
Actual Time
Civil Twilight
Nautical Twilight
Astronomical Twilight
Moon
Length of Visible Light
Length of Day
Tomorrow will be .
, % of the Moon is Illuminated

Today's Extremes

State Highs State Lows

Community

WunderPhotos

Upload Photos

1,962,540 photos uploaded!

WunderBlog® & News

Nearby

Air Quality

  Air Quality AQ Index Pollutant
Not available.

Snow Depth

Station Depth Elevation

Earthquake Activity

City Distance Mag. Time & Date
Minimum magnitude displayed is 2.5.

Coastal Water Temperatures

Place Temperature

Stations

Nearby Weather Stations

Station Location Temp. Windchill Dew Point Humidity Wind Precip. Elev Updated Type
                   

Watches & Warnings

Flood Advisory
Issued: 9:54 PM EST Feb. 27, 2017 – National Weather Service

The National Weather Service in Grand Rapids has issued a
* flood advisory for
the Sycamore Creek at Holt.
* Until Wednesday morning.
* There is not current observed data.
* Bankfull stage is 6.0 feet.
* Flood stage is 8.0 feet.
* Forecast, the river will rise to near 7.6 feet Wednesday early
afternoon.
* Impact, at 8.0 feet... expect minor flooding of low lying areas
adjacent to the river, in the Lansing Municipal Golf course and
sections of east Mt. Hope Road.


Lat... Lon 4271 8455 4268 8455 4264 8451 4264 8445
      4268 8449 4271 8451